»·PEaware :: UAL996 KEUG-KSFO

UAL996 :: KEUG-KSFO

FLIGHT INFORMATION

Flight Status: Arrived
Operator:
United Airlines
More flights by this operator :: More flights under this callsign
Pilot: Anonymous 20536 (20536)
Aircraft: BOEING 737-800
(B738)
More flights by this aircraft type
Origin: KEUG Mahlon Sweet
United States
Destination: KSFO San Francisco Intl
United States
More flights between these airports :: More routes between these airports
Route: +EUG1 EUG RBG MLBEC BDEGA3
File this flight plan on PilotEdge
Remarks:
Altitude:
(Current/Filed)
39,000ft
Speed:
(Current/Filed)
380kts
Departed: 27-Sep-18 03:03 PM
Arrived: 27-Sep-18 04:17 PM
Distance/Time
Traveled:
392nm/1:13
Distance/Time
To Go:
Arrived

Flight Plot

Page will automatically refresh every two minutes.

Flight plan parsing failed; only flown route is shown


Map Options




Map Legend


Flown Route
Filed Route
Departure Airport
Arrival Airport
Navaid (VOR, NDB)
Fix

Horizontal Profiles

Position Reports

Time Latitude Longitude Heading Altitude Ground
Speed
27-Sep-18 14:50 44.120270 -123.213884 201 382ft 0kts
27-Sep-18 14:51 44.120270 -123.213884 201 382ft 0kts
27-Sep-18 14:52 44.120270 -123.213883 201 382ft 0kts
27-Sep-18 14:53 44.120270 -123.213883 201 382ft 0kts
27-Sep-18 14:54 44.120270 -123.213883 201 382ft 0kts
27-Sep-18 14:55 44.120270 -123.213883 201 382ft 0kts
27-Sep-18 14:56 44.120270 -123.213883 201 382ft 0kts
27-Sep-18 14:57 44.120423 -123.213800 201 382ft 2kts
27-Sep-18 14:58 44.120718 -123.213350 272 382ft 0kts
27-Sep-18 14:59 44.120696 -123.213073 275 382ft 0kts
27-Sep-18 15:00 44.120697 -123.213078 275 382ft 0kts
27-Sep-18 15:01 44.120730 -123.213342 283 381ft 1kts
27-Sep-18 15:02 44.120091 -123.215736 210 381ft 12kts
27-Sep-18 15:03 44.116053 -123.216931 179 382ft 20kts
27-Sep-18 15:04 44.113630 -123.217251 279 382ft 0kts
27-Sep-18 15:05 44.114768 -123.218846 0 382ft 43kts
27-Sep-18 15:06 44.154304 -123.219951 358 1555ft 198kts
27-Sep-18 15:07 44.216563 -123.238642 316 4335ft 263kts
27-Sep-18 15:08 44.217309 -123.332685 216 7894ft 288kts
27-Sep-18 15:09 44.135683 -123.345162 181 10385ft 309kts
27-Sep-18 15:10 44.044992 -123.345834 182 13214ft 336kts
27-Sep-18 15:11 43.950235 -123.346523 182 16080ft 350kts
27-Sep-18 15:12 43.858163 -123.347203 183 18510ft 364kts
27-Sep-18 15:13 43.756081 -123.347960 183 20946ft 376kts
27-Sep-18 15:14 43.650576 -123.348763 183 23208ft 385kts
27-Sep-18 15:15 43.542540 -123.349592 183 25154ft 397kts
27-Sep-18 15:16 43.430765 -123.350439 183 26932ft 408kts
27-Sep-18 15:17 43.316130 -123.351289 183 28554ft 419kts
27-Sep-18 15:18 43.200015 -123.352108 182 30378ft 419kts
27-Sep-18 15:19 43.084295 -123.343404 178 32163ft 417kts
27-Sep-18 15:20 42.969574 -123.332403 179 33787ft 413kts
27-Sep-18 15:21 42.857256 -123.322175 179 35247ft 410kts
27-Sep-18 15:22 42.744515 -123.311907 179 36548ft 408kts
27-Sep-18 15:23 42.632201 -123.301679 179 37806ft 404kts
27-Sep-18 15:24 42.521018 -123.291550 179 38792ft 403kts
27-Sep-18 15:25 42.406797 -123.281171 179 38985ft 425kts
27-Sep-18 15:26 42.285667 -123.270119 179 38992ft 451kts
27-Sep-18 15:27 42.158716 -123.258523 179 38983ft 464kts
27-Sep-18 15:28 42.030251 -123.246803 179 38951ft 467kts
27-Sep-18 15:29 41.900232 -123.234949 179 38951ft 470kts
27-Sep-18 15:30 41.772751 -123.223326 179 39014ft 469kts
27-Sep-18 15:31 41.643322 -123.211516 179 39016ft 466kts
27-Sep-18 15:32 41.514383 -123.199764 179 39017ft 468kts
27-Sep-18 15:33 41.384948 -123.187956 179 39017ft 467kts
27-Sep-18 15:34 41.256228 -123.176216 179 39046ft 468kts
27-Sep-18 15:35 41.127152 -123.164437 178 39044ft 465kts
27-Sep-18 15:36 40.998328 -123.152687 178 39044ft 466kts
27-Sep-18 15:37 40.874445 -123.141383 178 39045ft 466kts
27-Sep-18 15:38 40.745672 -123.129633 178 39045ft 466kts
27-Sep-18 15:39 40.617386 -123.117926 178 39046ft 463kts
27-Sep-18 15:40 40.488922 -123.106203 178 39045ft 464kts
27-Sep-18 15:41 40.360752 -123.094506 178 39045ft 464kts
27-Sep-18 15:42 40.232475 -123.082802 178 39045ft 464kts
27-Sep-18 15:43 40.104700 -123.071140 178 38987ft 464kts
27-Sep-18 15:44 39.976384 -123.059445 178 38897ft 462kts
27-Sep-18 15:45 39.854257 -123.048283 178 38899ft 463kts
27-Sep-18 15:46 39.726120 -123.036586 178 38902ft 462kts
27-Sep-18 15:47 39.598535 -123.024940 178 38900ft 461kts
27-Sep-18 15:48 39.471182 -123.013319 178 38899ft 461kts
27-Sep-18 15:49 39.343479 -123.001664 178 38899ft 461kts
27-Sep-18 15:50 39.215840 -122.990019 178 38900ft 460kts
27-Sep-18 15:51 39.088844 -122.978430 178 38898ft 459kts
27-Sep-18 15:52 38.965948 -122.967174 178 38485ft 422kts
27-Sep-18 15:53 38.856241 -122.953999 169 35874ft 423kts
27-Sep-18 15:54 38.742445 -122.919980 168 33005ft 423kts
27-Sep-18 15:55 38.629017 -122.886360 167 29886ft 423kts
27-Sep-18 15:56 38.515839 -122.852972 167 27402ft 412kts
27-Sep-18 15:57 38.406317 -122.820753 167 24824ft 397kts
27-Sep-18 15:58 38.301724 -122.790077 167 22356ft 382kts
27-Sep-18 15:59 38.200376 -122.760455 167 19986ft 366kts
27-Sep-18 16:00 38.102775 -122.732050 167 17525ft 357kts
27-Sep-18 16:01 38.007607 -122.704441 167 15251ft 346kts
27-Sep-18 16:02 37.915577 -122.677323 162 13083ft 336kts
27-Sep-18 16:03 37.845296 -122.615357 140 12279ft 299kts
27-Sep-18 16:04 37.782415 -122.549004 140 11567ft 294kts
27-Sep-18 16:05 37.720283 -122.483232 140 10989ft 279kts
27-Sep-18 16:06 37.666012 -122.425476 140 10999ft 243kts
27-Sep-18 16:07 37.614392 -122.370724 142 10990ft 242kts
27-Sep-18 16:08 37.559898 -122.333582 154 10115ft 237kts
27-Sep-18 16:09 37.502077 -122.296750 151 8619ft 231kts
27-Sep-18 16:10 37.470732 -122.229115 112 6899ft 228kts
27-Sep-18 16:11 37.446920 -122.157241 112 5995ft 210kts
27-Sep-18 16:12 37.456369 -122.095836 25 4995ft 202kts
27-Sep-18 16:13 37.503968 -122.113574 321 3971ft 185kts
27-Sep-18 16:14 37.531035 -122.167331 297 3341ft 184kts
27-Sep-18 16:15 37.554882 -122.223571 300 2391ft 183kts
27-Sep-18 16:16 37.578225 -122.278975 303 1458ft 163kts
27-Sep-18 16:17 37.596605 -122.322396 300 656ft 131kts
27-Sep-18 16:18 37.613154 -122.361790 297 28ft 120kts
27-Sep-18 16:19 37.618953 -122.378085 267 20ft 16kts
27-Sep-18 16:20 37.619186 -122.383502 290 20ft 1kts

Navigation Log

Ident Type
Flight plan parsing failed, navigation log unavailable